sensor_id;sensor_type;location;lat;lon;timestamp;P1;durP1;ratioP1;P2;durP2;ratioP2
18627;SDS011;9443;50.888;10.728;2022-11-13T00:07:46;4.77;;;2.90;;
18627;SDS011;9443;50.888;10.728;2022-11-13T00:17:46;4.13;;;2.60;;
18627;SDS011;9443;50.888;10.728;2022-11-13T00:27:47;4.60;;;2.37;;
18627;SDS011;9443;50.888;10.728;2022-11-13T00:37:47;4.50;;;2.20;;
18627;SDS011;9443;50.888;10.728;2022-11-13T00:47:47;3.00;;;2.30;;
18627;SDS011;9443;50.888;10.728;2022-11-13T00:57:48;4.60;;;1.93;;
18627;SDS011;9443;50.888;10.728;2022-11-13T01:07:48;4.27;;;1.90;;
18627;SDS011;9443;50.888;10.728;2022-11-13T01:17:48;3.87;;;2.37;;
18627;SDS011;9443;50.888;10.728;2022-11-13T01:27:50;4.30;;;2.17;;
18627;SDS011;9443;50.888;10.728;2022-11-13T01:37:50;2.43;;;1.70;;
18627;SDS011;9443;50.888;10.728;2022-11-13T01:47:51;4.00;;;1.57;;
18627;SDS011;9443;50.888;10.728;2022-11-13T01:57:51;1.97;;;1.50;;
18627;SDS011;9443;50.888;10.728;2022-11-13T02:07:52;1.70;;;1.37;;
18627;SDS011;9443;50.888;10.728;2022-11-13T02:17:53;2.27;;;1.47;;
18627;SDS011;9443;50.888;10.728;2022-11-13T02:27:54;2.33;;;1.40;;
18627;SDS011;9443;50.888;10.728;2022-11-13T02:37:55;1.80;;;1.50;;
18627;SDS011;9443;50.888;10.728;2022-11-13T02:48:00;1.33;;;1.00;;
18627;SDS011;9443;50.888;10.728;2022-11-13T02:58:01;1.70;;;1.37;;
18627;SDS011;9443;50.888;10.728;2022-11-13T03:08:01;4.23;;;1.50;;
18627;SDS011;9443;50.888;10.728;2022-11-13T03:18:02;1.87;;;1.50;;
18627;SDS011;9443;50.888;10.728;2022-11-13T03:28:04;2.83;;;2.07;;
18627;SDS011;9443;50.888;10.728;2022-11-13T03:38:04;1.57;;;1.47;;
18627;SDS011;9443;50.888;10.728;2022-11-13T03:48:04;3.07;;;1.80;;
18627;SDS011;9443;50.888;10.728;2022-11-13T03:58:05;1.50;;;1.40;;
18627;SDS011;9443;50.888;10.728;2022-11-13T04:08:05;1.93;;;1.50;;
18627;SDS011;9443;50.888;10.728;2022-11-13T04:18:06;2.33;;;1.50;;
18627;SDS011;9443;50.888;10.728;2022-11-13T04:28:07;4.83;;;1.30;;
18627;SDS011;9443;50.888;10.728;2022-11-13T04:38:07;2.27;;;1.60;;
18627;SDS011;9443;50.888;10.728;2022-11-13T04:48:08;2.17;;;1.40;;
18627;SDS011;9443;50.888;10.728;2022-11-13T04:58:08;4.47;;;1.23;;
18627;SDS011;9443;50.888;10.728;2022-11-13T05:08:08;1.27;;;1.00;;
18627;SDS011;9443;50.888;10.728;2022-11-13T05:18:09;1.87;;;1.30;;
18627;SDS011;9443;50.888;10.728;2022-11-13T05:28:11;0.93;;;0.90;;
18627;SDS011;9443;50.888;10.728;2022-11-13T05:38:11;1.77;;;1.10;;
18627;SDS011;9443;50.888;10.728;2022-11-13T05:48:11;2.33;;;1.00;;
18627;SDS011;9443;50.888;10.728;2022-11-13T05:58:12;1.27;;;1.13;;
18627;SDS011;9443;50.888;10.728;2022-11-13T06:08:12;2.30;;;1.63;;
18627;SDS011;9443;50.888;10.728;2022-11-13T06:18:12;1.47;;;1.33;;
18627;SDS011;9443;50.888;10.728;2022-11-13T06:28:13;1.50;;;1.40;;
18627;SDS011;9443;50.888;10.728;2022-11-13T06:38:13;1.10;;;0.93;;
18627;SDS011;9443;50.888;10.728;2022-11-13T06:48:13;4.73;;;2.20;;
18627;SDS011;9443;50.888;10.728;2022-11-13T06:58:14;2.50;;;2.27;;
18627;SDS011;9443;50.888;10.728;2022-11-13T07:08:15;2.43;;;1.40;;
18627;SDS011;9443;50.888;10.728;2022-11-13T07:18:15;4.47;;;2.70;;
18627;SDS011;9443;50.888;10.728;2022-11-13T07:28:16;3.53;;;2.20;;
18627;SDS011;9443;50.888;10.728;2022-11-13T07:38:16;6.50;;;3.17;;
18627;SDS011;9443;50.888;10.728;2022-11-13T07:48:16;4.50;;;2.67;;
18627;SDS011;9443;50.888;10.728;2022-11-13T07:58:17;12.47;;;5.63;;
18627;SDS011;9443;50.888;10.728;2022-11-13T08:08:17;5.13;;;3.73;;
18627;SDS011;9443;50.888;10.728;2022-11-13T08:18:17;7.73;;;4.10;;
18627;SDS011;9443;50.888;10.728;2022-11-13T08:28:18;6.73;;;4.13;;
18627;SDS011;9443;50.888;10.728;2022-11-13T08:38:18;13.20;;;6.33;;
18627;SDS011;9443;50.888;10.728;2022-11-13T08:48:18;12.10;;;6.73;;
18627;SDS011;9443;50.888;10.728;2022-11-13T08:58:19;14.77;;;9.53;;
18627;SDS011;9443;50.888;10.728;2022-11-13T09:08:19;7.60;;;5.37;;
18627;SDS011;9443;50.888;10.728;2022-11-13T09:18:19;19.93;;;13.07;;
18627;SDS011;9443;50.888;10.728;2022-11-13T09:28:20;7.80;;;5.23;;
18627;SDS011;9443;50.888;10.728;2022-11-13T09:38:20;6.87;;;4.67;;
18627;SDS011;9443;50.888;10.728;2022-11-13T09:58:46;10.97;;;6.53;;
18627;SDS011;9443;50.888;10.728;2022-11-13T10:18:55;11.70;;;7.03;;
18627;SDS011;9443;50.888;10.728;2022-11-13T10:29:18;11.93;;;7.83;;
18627;SDS011;9443;50.888;10.728;2022-11-13T10:39:19;8.93;;;6.33;;
18627;SDS011;9443;50.888;10.728;2022-11-13T10:49:20;10.07;;;7.53;;
18627;SDS011;9443;50.888;10.728;2022-11-13T10:59:21;12.43;;;7.17;;
18627;SDS011;9443;50.888;10.728;2022-11-13T11:09:40;12.87;;;7.90;;
18627;SDS011;9443;50.888;10.728;2022-11-13T11:19:43;8.57;;;5.83;;
18627;SDS011;9443;50.888;10.728;2022-11-13T11:29:50;11.97;;;6.27;;
18627;SDS011;9443;50.888;10.728;2022-11-13T11:40:12;6.97;;;5.67;;
18627;SDS011;9443;50.888;10.728;2022-11-13T11:50:43;8.67;;;5.77;;
18627;SDS011;9443;50.888;10.728;2022-11-13T12:00:49;9.60;;;5.20;;
18627;SDS011;9443;50.888;10.728;2022-11-13T12:21:43;7.80;;;5.37;;
18627;SDS011;9443;50.888;10.728;2022-11-13T12:52:21;15.83;;;10.00;;
18627;SDS011;9443;50.888;10.728;2022-11-13T13:23:01;19.80;;;13.07;;
18627;SDS011;9443;50.888;10.728;2022-11-13T13:33:15;19.47;;;12.93;;
18627;SDS011;9443;50.888;10.728;2022-11-13T13:43:25;18.17;;;11.93;;
18627;SDS011;9443;50.888;10.728;2022-11-13T14:05:49;18.40;;;12.27;;
18627;SDS011;9443;50.888;10.728;2022-11-13T14:16:00;20.83;;;13.57;;
18627;SDS011;9443;50.888;10.728;2022-11-13T14:26:03;23.23;;;14.20;;
18627;SDS011;9443;50.888;10.728;2022-11-13T14:36:04;32.40;;;13.10;;
18627;SDS011;9443;50.888;10.728;2022-11-13T14:46:05;70.70;;;16.93;;
18627;SDS011;9443;50.888;10.728;2022-11-13T14:56:32;57.70;;;17.87;;
18627;SDS011;9443;50.888;10.728;2022-11-13T15:06:37;49.77;;;16.57;;
18627;SDS011;9443;50.888;10.728;2022-11-13T15:16:39;54.13;;;16.20;;
18627;SDS011;9443;50.888;10.728;2022-11-13T15:26:39;55.37;;;13.90;;
18627;SDS011;9443;50.888;10.728;2022-11-13T15:36:40;73.87;;;16.87;;
18627;SDS011;9443;50.888;10.728;2022-11-13T15:46:41;103.87;;;16.53;;
18627;SDS011;9443;50.888;10.728;2022-11-13T15:56:41;101.63;;;24.37;;
18627;SDS011;9443;50.888;10.728;2022-11-13T16:06:42;69.57;;;21.33;;
18627;SDS011;9443;50.888;10.728;2022-11-13T16:16:42;98.10;;;23.77;;
18627;SDS011;9443;50.888;10.728;2022-11-13T16:26:44;78.97;;;20.63;;
18627;SDS011;9443;50.888;10.728;2022-11-13T16:36:49;118.57;;;23.40;;
18627;SDS011;9443;50.888;10.728;2022-11-13T16:46:50;86.23;;;21.20;;
18627;SDS011;9443;50.888;10.728;2022-11-13T16:56:52;99.40;;;19.17;;
18627;SDS011;9443;50.888;10.728;2022-11-13T17:06:52;117.07;;;17.73;;
18627;SDS011;9443;50.888;10.728;2022-11-13T17:16:53;203.70;;;22.27;;
18627;SDS011;9443;50.888;10.728;2022-11-13T17:26:53;133.67;;;20.67;;
18627;SDS011;9443;50.888;10.728;2022-11-13T17:36:53;119.37;;;18.67;;
18627;SDS011;9443;50.888;10.728;2022-11-13T17:46:54;117.17;;;21.37;;
18627;SDS011;9443;50.888;10.728;2022-11-13T17:56:54;121.23;;;20.90;;
18627;SDS011;9443;50.888;10.728;2022-11-13T18:06:54;104.40;;;21.40;;
18627;SDS011;9443;50.888;10.728;2022-11-13T18:16:55;138.63;;;20.27;;
18627;SDS011;9443;50.888;10.728;2022-11-13T18:26:55;147.63;;;20.87;;
18627;SDS011;9443;50.888;10.728;2022-11-13T18:36:56;97.10;;;17.63;;
18627;SDS011;9443;50.888;10.728;2022-11-13T18:46:57;114.97;;;17.23;;
18627;SDS011;9443;50.888;10.728;2022-11-13T18:56:57;86.70;;;15.50;;
18627;SDS011;9443;50.888;10.728;2022-11-13T19:06:58;82.73;;;19.93;;
18627;SDS011;9443;50.888;10.728;2022-11-13T19:16:58;71.87;;;18.17;;
18627;SDS011;9443;50.888;10.728;2022-11-13T19:26:58;81.38;;;21.35;;
18627;SDS011;9443;50.888;10.728;2022-11-13T19:36:59;62.30;;;14.80;;
18627;SDS011;9443;50.888;10.728;2022-11-13T19:46:59;80.53;;;16.97;;
18627;SDS011;9443;50.888;10.728;2022-11-13T19:57:00;67.00;;;13.87;;
18627;SDS011;9443;50.888;10.728;2022-11-13T20:07:00;93.27;;;14.07;;
18627;SDS011;9443;50.888;10.728;2022-11-13T20:17:00;120.87;;;15.83;;
18627;SDS011;9443;50.888;10.728;2022-11-13T20:27:02;55.07;;;13.30;;
18627;SDS011;9443;50.888;10.728;2022-11-13T20:37:02;203.37;;;20.77;;
18627;SDS011;9443;50.888;10.728;2022-11-13T20:47:03;191.87;;;19.43;;
18627;SDS011;9443;50.888;10.728;2022-11-13T20:57:03;132.93;;;17.27;;
18627;SDS011;9443;50.888;10.728;2022-11-13T21:07:03;110.43;;;15.67;;
18627;SDS011;9443;50.888;10.728;2022-11-13T21:17:04;69.23;;;14.37;;
18627;SDS011;9443;50.888;10.728;2022-11-13T21:27:04;62.73;;;14.70;;
18627;SDS011;9443;50.888;10.728;2022-11-13T21:37:05;62.27;;;15.60;;
18627;SDS011;9443;50.888;10.728;2022-11-13T21:47:09;44.67;;;11.60;;
18627;SDS011;9443;50.888;10.728;2022-11-13T21:57:09;34.93;;;9.97;;
18627;SDS011;9443;50.888;10.728;2022-11-13T22:07:10;34.47;;;10.23;;
18627;SDS011;9443;50.888;10.728;2022-11-13T22:17:10;35.37;;;10.47;;
18627;SDS011;9443;50.888;10.728;2022-11-13T22:27:10;44.10;;;10.17;;
18627;SDS011;9443;50.888;10.728;2022-11-13T22:37:11;28.77;;;10.00;;
18627;SDS011;9443;50.888;10.728;2022-11-13T22:47:11;29.90;;;9.60;;
18627;SDS011;9443;50.888;10.728;2022-11-13T22:57:11;22.83;;;9.43;;
18627;SDS011;9443;50.888;10.728;2022-11-13T23:07:13;28.00;;;10.10;;
18627;SDS011;9443;50.888;10.728;2022-11-13T23:17:13;42.90;;;10.90;;
18627;SDS011;9443;50.888;10.728;2022-11-13T23:27:13;37.23;;;11.70;;
18627;SDS011;9443;50.888;10.728;2022-11-13T23:37:14;47.83;;;13.43;;
18627;SDS011;9443;50.888;10.728;2022-11-13T23:47:14;41.50;;;14.03;;
18627;SDS011;9443;50.888;10.728;2022-11-13T23:57:15;67.57;;;13.90;;
